sensor_id;sensor_type;location;lat;lon;timestamp;pressure;altitude;pressure_sealevel;temperature;humidity
65376;BME280;51976;47.332;9.404;2022-07-03T00:01:19;93301.66;;;22.21;54.98
65376;BME280;51976;47.332;9.404;2022-07-03T00:03:44;93301.22;;;22.19;55.03
65376;BME280;51976;47.332;9.404;2022-07-03T00:06:10;93298.13;;;22.21;54.73
65376;BME280;51976;47.332;9.404;2022-07-03T00:08:36;93296.19;;;22.21;54.88
65376;BME280;51976;47.332;9.404;2022-07-03T00:11:01;93300.88;;;22.21;55.04
65376;BME280;51976;47.332;9.404;2022-07-03T00:13:27;93299.59;;;22.18;55.07
65376;BME280;51976;47.332;9.404;2022-07-03T00:15:53;93300.41;;;22.19;54.80
65376;BME280;51976;47.332;9.404;2022-07-03T00:18:18;93300.41;;;22.19;54.85
65376;BME280;51976;47.332;9.404;2022-07-03T00:20:55;93303.16;;;22.19;55.10
65376;BME280;51976;47.332;9.404;2022-07-03T00:23:25;93305.00;;;22.15;55.11
65376;BME280;51976;47.332;9.404;2022-07-03T00:25:53;93309.31;;;22.16;55.08
65376;BME280;51976;47.332;9.404;2022-07-03T00:28:19;93307.38;;;22.16;55.11
65376;BME280;51976;47.332;9.404;2022-07-03T00:30:48;93301.81;;;22.13;54.80
65376;BME280;51976;47.332;9.404;2022-07-03T00:33:14;93299.28;;;22.08;55.17
65376;BME280;51976;47.332;9.404;2022-07-03T00:35:42;93310.50;;;22.15;55.03
65376;BME280;51976;47.332;9.404;2022-07-03T00:38:10;93304.56;;;22.13;54.90
65376;BME280;51976;47.332;9.404;2022-07-03T00:40:37;93302.16;;;22.11;54.83
65376;BME280;51976;47.332;9.404;2022-07-03T00:43:03;93303.28;;;22.10;54.71
65376;BME280;51976;47.332;9.404;2022-07-03T00:45:33;93302.16;;;22.11;54.85
65376;BME280;51976;47.332;9.404;2022-07-03T00:47:59;93307.19;;;22.09;55.03
65376;BME280;51976;47.332;9.404;2022-07-03T00:50:34;93302.94;;;22.12;54.71
65376;BME280;51976;47.332;9.404;2022-07-03T00:53:02;93304.78;;;22.08;55.09
65376;BME280;51976;47.332;9.404;2022-07-03T00:55:28;93298.13;;;22.09;55.00
65376;BME280;51976;47.332;9.404;2022-07-03T00:57:55;93295.38;;;22.09;54.91
65376;BME280;51976;47.332;9.404;2022-07-03T01:00:21;93300.88;;;22.09;54.71
65376;BME280;51976;47.332;9.404;2022-07-03T01:02:54;93300.88;;;22.09;54.75
65376;BME280;51976;47.332;9.404;2022-07-03T01:05:27;93304.78;;;22.08;54.97
65376;BME280;51976;47.332;9.404;2022-07-03T01:08:48;93295.72;;;22.07;54.76
65376;BME280;51976;47.332;9.404;2022-07-03T01:11:20;93299.16;;;22.04;55.03
65376;BME280;51976;47.332;9.404;2022-07-03T01:16:58;93301.44;;;22.02;54.87
65376;BME280;51976;47.332;9.404;2022-07-03T01:19:43;93298.69;;;22.02;54.95
65376;BME280;51976;47.332;9.404;2022-07-03T01:22:36;93292.88;;;22.04;55.02
65376;BME280;51976;47.332;9.404;2022-07-03T01:25:13;93298.22;;;22.00;54.86
65376;BME280;51976;47.332;9.404;2022-07-03T01:28:11;93292.72;;;22.00;55.08
65376;BME280;51976;47.332;9.404;2022-07-03T01:30:44;93288.06;;;22.01;54.78
65376;BME280;51976;47.332;9.404;2022-07-03T01:33:16;93291.91;;;22.00;55.04
65376;BME280;51976;47.332;9.404;2022-07-03T01:35:47;93286.41;;;22.00;54.73
65376;BME280;51976;47.332;9.404;2022-07-03T01:38:16;93288.72;;;21.98;54.91
65376;BME280;51976;47.332;9.404;2022-07-03T01:40:42;93287.91;;;21.97;54.99
65376;BME280;51976;47.332;9.404;2022-07-03T01:43:10;93294.53;;;21.96;54.74
65376;BME280;51976;47.332;9.404;2022-07-03T01:45:42;93285.50;;;21.95;54.83
65376;BME280;51976;47.332;9.404;2022-07-03T01:48:10;93283.91;;;21.94;55.10
65376;BME280;51976;47.332;9.404;2022-07-03T01:50:37;93286.31;;;21.96;54.81
65376;BME280;51976;47.332;9.404;2022-07-03T01:53:03;93290.19;;;21.95;54.74
65376;BME280;51976;47.332;9.404;2022-07-03T01:55:32;93284.69;;;21.95;54.82
65376;BME280;51976;47.332;9.404;2022-07-03T01:57:58;93283.09;;;21.94;55.03
65376;BME280;51976;47.332;9.404;2022-07-03T02:00:24;93294.06;;;21.94;54.66
65376;BME280;51976;47.332;9.404;2022-07-03T02:02:55;93297.97;;;21.93;54.64
65376;BME280;51976;47.332;9.404;2022-07-03T02:05:34;93295.22;;;21.93;54.99
65376;BME280;51976;47.332;9.404;2022-07-03T02:08:17;93289.25;;;21.91;54.99
65376;BME280;51976;47.332;9.404;2022-07-03T02:11:04;93293.94;;;21.90;54.88
65376;BME280;51976;47.332;9.404;2022-07-03T02:13:38;93290.75;;;21.88;55.08
65376;BME280;51976;47.332;9.404;2022-07-03T02:16:08;93279.09;;;21.91;55.07
65376;BME280;51976;47.332;9.404;2022-07-03T02:18:36;93290.41;;;21.90;54.84
65376;BME280;51976;47.332;9.404;2022-07-03T02:21:07;93277.47;;;21.90;54.88
65376;BME280;51976;47.332;9.404;2022-07-03T02:24:01;93282.88;;;21.87;54.69
65376;BME280;51976;47.332;9.404;2022-07-03T02:26:32;93284.50;;;21.88;54.86
65376;BME280;51976;47.332;9.404;2022-07-03T02:29:02;93286.78;;;21.86;54.84
65376;BME280;51976;47.332;9.404;2022-07-03T02:31:34;93291.91;;;21.87;54.99
65376;BME280;51976;47.332;9.404;2022-07-03T02:34:04;93284.81;;;21.86;54.97
65376;BME280;51976;47.332;9.404;2022-07-03T02:36:32;93292.25;;;21.86;54.86
65376;BME280;51976;47.332;9.404;2022-07-03T02:38:59;93296.16;;;21.85;55.05
65376;BME280;51976;47.332;9.404;2022-07-03T02:41:49;93302.78;;;21.84;54.88
65376;BME280;51976;47.332;9.404;2022-07-03T02:44:26;93301.63;;;21.85;54.88
65376;BME280;51976;47.332;9.404;2022-07-03T02:47:06;93301.97;;;21.83;54.86
65376;BME280;51976;47.332;9.404;2022-07-03T02:49:53;93304.72;;;21.83;54.93
65376;BME280;51976;47.332;9.404;2022-07-03T02:52:52;93310.22;;;21.83;54.75
65376;BME280;51976;47.332;9.404;2022-07-03T02:55:44;93299.91;;;21.80;54.49
65376;BME280;51976;47.332;9.404;2022-07-03T03:01:13;93312.03;;;21.79;54.95
65376;BME280;51976;47.332;9.404;2022-07-03T03:03:45;93310.88;;;21.80;54.96
65376;BME280;51976;47.332;9.404;2022-07-03T03:06:15;93304.94;;;21.78;54.79
65376;BME280;51976;47.332;9.404;2022-07-03T03:08:50;93319.44;;;21.79;54.83
65376;BME280;51976;47.332;9.404;2022-07-03T03:11:24;93314.31;;;21.77;54.96
65376;BME280;51976;47.332;9.404;2022-07-03T03:13:56;93308.81;;;21.77;54.80
65376;BME280;51976;47.332;9.404;2022-07-03T03:16:23;93320.25;;;21.79;54.60
65376;BME280;51976;47.332;9.404;2022-07-03T03:18:48;93320.94;;;21.76;54.91
65376;BME280;51976;47.332;9.404;2022-07-03T03:21:17;93322.06;;;21.75;54.81
65376;BME280;51976;47.332;9.404;2022-07-03T03:23:47;93317.72;;;21.74;54.70
65376;BME280;51976;47.332;9.404;2022-07-03T03:26:18;93322.06;;;21.75;54.86
65376;BME280;51976;47.332;9.404;2022-07-03T03:28:44;93327.09;;;21.73;54.80
65376;BME280;51976;47.332;9.404;2022-07-03T03:31:10;93327.91;;;21.74;54.79
65376;BME280;51976;47.332;9.404;2022-07-03T03:33:39;93320.00;;;21.72;54.87
65376;BME280;51976;47.332;9.404;2022-07-03T03:36:06;93320.00;;;21.72;54.71
65376;BME280;51976;47.332;9.404;2022-07-03T03:38:32;93329.84;;;21.73;54.91
65376;BME280;51976;47.332;9.404;2022-07-03T03:40:58;93334.88;;;21.71;54.92
65376;BME280;51976;47.332;9.404;2022-07-03T03:43:24;93330.53;;;21.70;54.71
65376;BME280;51976;47.332;9.404;2022-07-03T03:45:50;93332.94;;;21.72;55.12
65376;BME280;51976;47.332;9.404;2022-07-03T03:48:15;93328.91;;;21.69;55.17
65376;BME280;51976;47.332;9.404;2022-07-03T03:50:40;93336.00;;;21.70;54.93
65376;BME280;51976;47.332;9.404;2022-07-03T03:53:08;93339.56;;;21.71;54.57
65376;BME280;51976;47.332;9.404;2022-07-03T03:55:33;93333.25;;;21.70;54.78
65376;BME280;51976;47.332;9.404;2022-07-03T03:57:59;93334.41;;;21.69;55.02
65376;BME280;51976;47.332;9.404;2022-07-03T04:00:27;93330.84;;;21.69;54.87
65376;BME280;51976;47.332;9.404;2022-07-03T04:02:52;93334.75;;;21.68;55.03
65376;BME280;51976;47.332;9.404;2022-07-03T04:05:18;93338.28;;;21.68;54.98
65376;BME280;51976;47.332;9.404;2022-07-03T04:07:43;93338.75;;;21.70;54.77
65376;BME280;51976;47.332;9.404;2022-07-03T04:10:09;93347.31;;;21.69;54.79
65376;BME280;51976;47.332;9.404;2022-07-03T04:12:34;93342.16;;;21.67;54.63
65376;BME280;51976;47.332;9.404;2022-07-03T04:15:00;93337.81;;;21.66;55.07
65376;BME280;51976;47.332;9.404;2022-07-03T04:17:25;93344.09;;;21.67;54.74
65376;BME280;51976;47.332;9.404;2022-07-03T04:19:51;93333.94;;;21.67;54.93
65376;BME280;51976;47.332;9.404;2022-07-03T04:22:17;93339.44;;;21.67;54.68
65376;BME280;51976;47.332;9.404;2022-07-03T04:24:42;93337.00;;;21.66;54.64
65376;BME280;51976;47.332;9.404;2022-07-03T04:27:07;93337.81;;;21.66;55.00
65376;BME280;51976;47.332;9.404;2022-07-03T04:29:33;93345.25;;;21.66;55.03
65376;BME280;51976;47.332;9.404;2022-07-03T04:31:58;93337.81;;;21.66;54.79
65376;BME280;51976;47.332;9.404;2022-07-03T04:34:24;93341.38;;;21.67;54.74
65376;BME280;51976;47.332;9.404;2022-07-03T04:36:49;93338.16;;;21.65;54.68
65376;BME280;51976;47.332;9.404;2022-07-03T04:39:14;93334.94;;;21.62;54.64
65376;BME280;51976;47.332;9.404;2022-07-03T04:41:40;93340.91;;;21.65;54.62
65376;BME280;51976;47.332;9.404;2022-07-03T04:44:05;93345.25;;;21.66;54.72
65376;BME280;51976;47.332;9.404;2022-07-03T04:46:31;93343.66;;;21.65;54.91
65376;BME280;51976;47.332;9.404;2022-07-03T04:48:56;93342.84;;;21.64;54.93
65376;BME280;51976;47.332;9.404;2022-07-03T04:51:22;93343.97;;;21.63;54.95
65376;BME280;51976;47.332;9.404;2022-07-03T04:53:47;93351.06;;;21.64;54.56
65376;BME280;51976;47.332;9.404;2022-07-03T04:56:12;93345.59;;;21.64;54.91
65376;BME280;51976;47.332;9.404;2022-07-03T04:58:38;93342.84;;;21.64;54.84
65376;BME280;51976;47.332;9.404;2022-07-03T05:01:03;93345.25;;;21.66;54.89
65376;BME280;51976;47.332;9.404;2022-07-03T05:03:29;93348.00;;;21.66;54.52
65376;BME280;51976;47.332;9.404;2022-07-03T05:05:54;93353.81;;;21.64;54.78
65376;BME280;51976;47.332;9.404;2022-07-03T05:08:20;93353.34;;;21.62;54.60
65376;BME280;51976;47.332;9.404;2022-07-03T05:10:46;93356.56;;;21.64;54.71
65376;BME280;51976;47.332;9.404;2022-07-03T05:13:11;93349.94;;;21.65;54.49
65376;BME280;51976;47.332;9.404;2022-07-03T05:15:37;93354.63;;;21.65;54.80
65376;BME280;51976;47.332;9.404;2022-07-03T05:18:02;93350.41;;;21.67;54.56
65376;BME280;51976;47.332;9.404;2022-07-03T05:20:28;93357.03;;;21.66;54.40
65376;BME280;51976;47.332;9.404;2022-07-03T05:22:54;93347.19;;;21.65;54.84
65376;BME280;51976;47.332;9.404;2022-07-03T05:25:21;93348.78;;;21.66;54.68
65376;BME280;51976;47.332;9.404;2022-07-03T05:27:47;93352.69;;;21.65;54.83
65376;BME280;51976;47.332;9.404;2022-07-03T05:30:13;93362.03;;;21.64;54.42
65376;BME280;51976;47.332;9.404;2022-07-03T05:32:39;93357.69;;;21.63;54.89
65376;BME280;51976;47.332;9.404;2022-07-03T05:35:05;93352.22;;;21.63;54.62
65376;BME280;51976;47.332;9.404;2022-07-03T05:37:31;93356.22;;;21.66;54.51
65376;BME280;51976;47.332;9.404;2022-07-03T05:39:57;93356.69;;;21.68;54.33
65376;BME280;51976;47.332;9.404;2022-07-03T05:42:22;93349.94;;;21.65;54.75
65376;BME280;51976;47.332;9.404;2022-07-03T05:44:47;93352.00;;;21.68;54.48
65376;BME280;51976;47.332;9.404;2022-07-03T05:47:13;93355.88;;;21.67;54.38
65376;BME280;51976;47.332;9.404;2022-07-03T05:49:38;93356.34;;;21.69;54.46
65376;BME280;51976;47.332;9.404;2022-07-03T05:52:04;93350.41;;;21.67;54.75
65376;BME280;51976;47.332;9.404;2022-07-03T05:54:30;93355.88;;;21.67;54.61
65376;BME280;51976;47.332;9.404;2022-07-03T05:56:55;93357.50;;;21.68;54.54
65376;BME280;51976;47.332;9.404;2022-07-03T05:59:20;93357.16;;;21.70;54.64
65376;BME280;51976;47.332;9.404;2022-07-03T06:01:46;93359.91;;;21.70;54.50
65376;BME280;51976;47.332;9.404;2022-07-03T06:04:11;93353.28;;;21.71;54.54
65376;BME280;51976;47.332;9.404;2022-07-03T06:06:37;93355.22;;;21.70;54.70
65376;BME280;51976;47.332;9.404;2022-07-03T06:09:02;93350.53;;;21.71;54.63
65376;BME280;51976;47.332;9.404;2022-07-03T06:11:28;93356.00;;;21.71;54.54
65376;BME280;51976;47.332;9.404;2022-07-03T06:13:53;93351.31;;;21.71;54.65
65376;BME280;51976;47.332;9.404;2022-07-03T06:16:19;93350.53;;;21.71;54.34
65376;BME280;51976;47.332;9.404;2022-07-03T06:18:44;93352.13;;;21.72;54.37
65376;BME280;51976;47.332;9.404;2022-07-03T06:21:10;93354.06;;;21.71;54.47
65376;BME280;51976;47.332;9.404;2022-07-03T06:23:35;93346.31;;;21.73;54.32
65376;BME280;51976;47.332;9.404;2022-07-03T06:26:01;93354.53;;;21.73;54.29
65376;BME280;51976;47.332;9.404;2022-07-03T06:28:26;93349.06;;;21.73;54.36
65376;BME280;51976;47.332;9.404;2022-07-03T06:30:51;93345.03;;;21.71;54.59
65376;BME280;51976;47.332;9.404;2022-07-03T06:33:17;93347.09;;;21.74;54.19
65376;BME280;51976;47.332;9.404;2022-07-03T06:35:43;93345.50;;;21.73;54.48
65376;BME280;51976;47.332;9.404;2022-07-03T06:38:08;93346.44;;;21.77;54.55
65376;BME280;51976;47.332;9.404;2022-07-03T06:40:34;93337.41;;;21.76;54.16
65376;BME280;51976;47.332;9.404;2022-07-03T06:42:59;93342.88;;;21.76;54.45
65376;BME280;51976;47.332;9.404;2022-07-03T06:45:25;93342.88;;;21.76;54.45
65376;BME280;51976;47.332;9.404;2022-07-03T06:47:50;93342.88;;;21.76;54.48
65376;BME280;51976;47.332;9.404;2022-07-03T06:50:16;93341.28;;;21.75;54.26
65376;BME280;51976;47.332;9.404;2022-07-03T06:52:41;93339.00;;;21.77;54.41
65376;BME280;51976;47.332;9.404;2022-07-03T06:55:07;93340.59;;;21.78;54.37
65376;BME280;51976;47.332;9.404;2022-07-03T06:57:32;93338.19;;;21.77;54.25
65376;BME280;51976;47.332;9.404;2022-07-03T06:59:58;93344.50;;;21.77;54.44
65376;BME280;51976;47.332;9.404;2022-07-03T07:02:23;93338.31;;;21.80;54.12
65376;BME280;51976;47.332;9.404;2022-07-03T07:04:48;93335.13;;;21.78;54.25
65376;BME280;51976;47.332;9.404;2022-07-03T07:07:14;93335.59;;;21.80;54.35
65376;BME280;51976;47.332;9.404;2022-07-03T07:09:40;93326.41;;;21.76;54.19
65376;BME280;51976;47.332;9.404;2022-07-03T07:12:05;93333.97;;;21.79;54.21
65376;BME280;51976;47.332;9.404;2022-07-03T07:14:31;93342.22;;;21.79;54.49
65376;BME280;51976;47.332;9.404;2022-07-03T07:16:56;93332.72;;;21.77;54.47
65376;BME280;51976;47.332;9.404;2022-07-03T07:19:22;93333.97;;;21.79;54.27
65376;BME280;51976;47.332;9.404;2022-07-03T07:21:47;93331.09;;;21.76;54.18
65376;BME280;51976;47.332;9.404;2022-07-03T07:24:13;93325.75;;;21.79;54.36
65376;BME280;51976;47.332;9.404;2022-07-03T07:26:38;93325.63;;;21.76;54.32
65376;BME280;51976;47.332;9.404;2022-07-03T07:29:03;93332.84;;;21.80;54.20
65376;BME280;51976;47.332;9.404;2022-07-03T07:31:29;93328.50;;;21.79;54.47
65376;BME280;51976;47.332;9.404;2022-07-03T07:33:54;93323.00;;;21.79;54.26
65376;BME280;51976;47.332;9.404;2022-07-03T07:36:20;93321.06;;;21.80;54.55
65376;BME280;51976;47.332;9.404;2022-07-03T07:38:45;93321.19;;;21.83;54.43
65376;BME280;51976;47.332;9.404;2022-07-03T07:41:10;93326.34;;;21.85;54.36
65376;BME280;51976;47.332;9.404;2022-07-03T07:43:36;93323.47;;;21.81;54.21
65376;BME280;51976;47.332;9.404;2022-07-03T07:46:01;93323.00;;;21.79;54.47
65376;BME280;51976;47.332;9.404;2022-07-03T07:48:27;93320.38;;;21.83;54.39
65376;BME280;51976;47.332;9.404;2022-07-03T07:50:52;93320.03;;;21.84;54.46
65376;BME280;51976;47.332;9.404;2022-07-03T07:53:18;93318.91;;;21.85;54.28
65376;BME280;51976;47.332;9.404;2022-07-03T07:55:43;93313.41;;;21.85;54.49
65376;BME280;51976;47.332;9.404;2022-07-03T07:58:08;93318.44;;;21.83;54.28
65376;BME280;51976;47.332;9.404;2022-07-03T08:00:34;93319.38;;;21.87;54.22
65376;BME280;51976;47.332;9.404;2022-07-03T08:03:00;93312.72;;;21.88;54.10
65376;BME280;51976;47.332;9.404;2022-07-03T08:05:45;93304.47;;;21.88;54.33
65376;BME280;51976;47.332;9.404;2022-07-03T08:08:15;93308.81;;;21.89;54.31
65376;BME280;51976;47.332;9.404;2022-07-03T08:10:48;93309.19;;;21.88;54.33
65376;BME280;51976;47.332;9.404;2022-07-03T08:13:16;93305.28;;;21.89;54.27
65376;BME280;51976;47.332;9.404;2022-07-03T08:15:43;93310.75;;;21.89;54.42
65376;BME280;51976;47.332;9.404;2022-07-03T08:18:09;93304.94;;;21.90;54.36
65376;BME280;51976;47.332;9.404;2022-07-03T08:20:36;93299.78;;;21.89;54.22
65376;BME280;51976;47.332;9.404;2022-07-03T08:23:02;93308.59;;;21.94;53.98
65376;BME280;51976;47.332;9.404;2022-07-03T08:25:28;93302.78;;;21.96;54.14
65376;BME280;51976;47.332;9.404;2022-07-03T08:27:55;93306.66;;;21.95;54.35
65376;BME280;51976;47.332;9.404;2022-07-03T08:30:20;93311.47;;;21.98;54.31
65376;BME280;51976;47.332;9.404;2022-07-03T08:32:50;93300.16;;;22.00;54.14
65376;BME280;51976;47.332;9.404;2022-07-03T08:35:17;93303.03;;;22.03;54.22
65376;BME280;51976;47.332;9.404;2022-07-03T08:37:43;93294.34;;;22.01;54.28
65376;BME280;51976;47.332;9.404;2022-07-03T08:40:12;93299.97;;;22.05;54.23
65376;BME280;51976;47.332;9.404;2022-07-03T08:42:42;93295.28;;;22.05;54.10
65376;BME280;51976;47.332;9.404;2022-07-03T08:45:13;93292.19;;;22.07;53.95
65376;BME280;51976;47.332;9.404;2022-07-03T08:47:40;93291.50;;;22.10;54.09
65376;BME280;51976;47.332;9.404;2022-07-03T08:50:06;93292.75;;;22.12;53.91
65376;BME280;51976;47.332;9.404;2022-07-03T08:52:33;93298.25;;;22.12;54.15
65376;BME280;51976;47.332;9.404;2022-07-03T08:54:59;93295.59;;;22.16;53.80
65376;BME280;51976;47.332;9.404;2022-07-03T08:57:25;93292.50;;;22.17;54.12
65376;BME280;51976;47.332;9.404;2022-07-03T08:59:53;93291.47;;;22.22;54.08
65376;BME280;51976;47.332;9.404;2022-07-03T09:02:18;93279.69;;;22.21;53.83
65376;BME280;51976;47.332;9.404;2022-07-03T09:04:44;93281.75;;;22.24;53.76
65376;BME280;51976;47.332;9.404;2022-07-03T09:07:11;93285.44;;;22.28;53.87
65376;BME280;51976;47.332;9.404;2022-07-03T09:09:39;93281.31;;;22.35;53.57
65376;BME280;51976;47.332;9.404;2022-07-03T09:12:05;93288.88;;;22.38;53.54
65376;BME280;51976;47.332;9.404;2022-07-03T09:14:31;93282.69;;;22.41;53.69
65376;BME280;51976;47.332;9.404;2022-07-03T09:16:57;93283.22;;;22.46;53.48
65376;BME280;51976;47.332;9.404;2022-07-03T09:19:42;93280.81;;;22.45;53.36
65376;BME280;51976;47.332;9.404;2022-07-03T09:22:24;93288.16;;;22.53;53.21
65376;BME280;51976;47.332;9.404;2022-07-03T09:24:53;93277.63;;;22.55;53.54
65376;BME280;51976;47.332;9.404;2022-07-03T09:27:20;93276.34;;;22.52;53.33
65376;BME280;51976;47.332;9.404;2022-07-03T09:30:06;93274.88;;;22.55;53.39
65376;BME280;51976;47.332;9.404;2022-07-03T09:32:42;93274.06;;;22.54;53.55
65376;BME280;51976;47.332;9.404;2022-07-03T09:35:19;93259.63;;;22.57;53.31
65376;BME280;51976;47.332;9.404;2022-07-03T09:37:58;93261.25;;;22.58;53.50
65376;BME280;51976;47.332;9.404;2022-07-03T09:40:26;93270.41;;;22.62;53.36
65376;BME280;51976;47.332;9.404;2022-07-03T09:43:02;93273.13;;;22.62;53.26
65376;BME280;51976;47.332;9.404;2022-07-03T09:45:52;93268.56;;;22.67;53.28
65376;BME280;51976;47.332;9.404;2022-07-03T09:48:25;93262.38;;;22.70;53.43
65376;BME280;51976;47.332;9.404;2022-07-03T09:51:15;93259.69;;;22.73;53.15
65376;BME280;51976;47.332;9.404;2022-07-03T09:53:52;93256.84;;;22.82;52.92
65376;BME280;51976;47.332;9.404;2022-07-03T09:56:19;93257.66;;;22.82;53.03
65376;BME280;51976;47.332;9.404;2022-07-03T09:59:07;93258.31;;;22.91;52.79
65376;BME280;51976;47.332;9.404;2022-07-03T10:01:37;93259.69;;;22.98;52.70
65376;BME280;51976;47.332;9.404;2022-07-03T10:04:13;93260.44;;;22.98;52.71
65376;BME280;51976;47.332;9.404;2022-07-03T10:06:57;93258.72;;;23.06;52.65
65376;BME280;51976;47.332;9.404;2022-07-03T10:09:28;93266.38;;;23.12;52.34
65376;BME280;51976;47.332;9.404;2022-07-03T10:11:55;93257.88;;;23.17;52.23
65376;BME280;51976;47.332;9.404;2022-07-03T10:14:23;93262.34;;;23.22;52.37
65376;BME280;51976;47.332;9.404;2022-07-03T10:16:49;93263.19;;;23.26;52.16
65376;BME280;51976;47.332;9.404;2022-07-03T10:19:18;93253.31;;;23.37;52.12
65376;BME280;51976;47.332;9.404;2022-07-03T10:21:49;93260.41;;;23.38;51.93
65376;BME280;51976;47.332;9.404;2022-07-03T10:24:15;93258.91;;;23.41;52.13
65376;BME280;51976;47.332;9.404;2022-07-03T10:26:42;93258.31;;;23.47;52.17
65376;BME280;51976;47.332;9.404;2022-07-03T10:29:09;93255.66;;;23.51;51.99
65376;BME280;51976;47.332;9.404;2022-07-03T10:31:37;93257.22;;;23.36;52.25
65376;BME280;51976;47.332;9.404;2022-07-03T10:34:03;93264.50;;;23.44;52.10
65376;BME280;51976;47.332;9.404;2022-07-03T10:36:30;93256.56;;;23.55;51.88
65376;BME280;51976;47.332;9.404;2022-07-03T10:38:57;93264.09;;;23.58;51.88
65376;BME280;51976;47.332;9.404;2022-07-03T10:41:43;93263.75;;;23.59;52.02
65376;BME280;51976;47.332;9.404;2022-07-03T10:44:30;93260.75;;;23.65;51.67
65376;BME280;51976;47.332;9.404;2022-07-03T10:47:37;93256.59;;;23.71;51.86
65376;BME280;51976;47.332;9.404;2022-07-03T10:50:13;93264.22;;;23.77;51.62
65376;BME280;51976;47.332;9.404;2022-07-03T10:52:40;93249.31;;;23.78;51.59
65376;BME280;51976;47.332;9.404;2022-07-03T10:55:06;93256.03;;;23.81;51.63
65376;BME280;51976;47.332;9.404;2022-07-03T10:57:34;93252.94;;;23.82;51.69
65376;BME280;51976;47.332;9.404;2022-07-03T11:00:00;93258.53;;;23.86;51.60
65376;BME280;51976;47.332;9.404;2022-07-03T11:02:39;93257.47;;;23.90;51.59
65376;BME280;51976;47.332;9.404;2022-07-03T11:05:09;93252.88;;;23.94;51.45
65376;BME280;51976;47.332;9.404;2022-07-03T11:07:44;93255.81;;;24.02;51.46
65376;BME280;51976;47.332;9.404;2022-07-03T11:10:29;93255.34;;;24.00;51.33
65376;BME280;51976;47.332;9.404;2022-07-03T11:13:02;93257.03;;;24.04;51.43
65376;BME280;51976;47.332;9.404;2022-07-03T11:15:39;93255.25;;;24.12;51.37
65376;BME280;51976;47.332;9.404;2022-07-03T11:18:18;93250.97;;;24.14;51.19
65376;BME280;51976;47.332;9.404;2022-07-03T11:21:18;93255.78;;;24.17;51.24
65376;BME280;51976;47.332;9.404;2022-07-03T11:24:11;93235.25;;;24.15;51.21
65376;BME280;51976;47.332;9.404;2022-07-03T11:26:39;93243.47;;;24.27;51.14
65376;BME280;51976;47.332;9.404;2022-07-03T11:29:04;93245.50;;;24.30;51.09
65376;BME280;51976;47.332;9.404;2022-07-03T11:31:30;93240.66;;;24.43;50.93
65376;BME280;51976;47.332;9.404;2022-07-03T11:33:59;93236.31;;;24.42;50.94
65376;BME280;51976;47.332;9.404;2022-07-03T11:36:27;93231.94;;;24.41;50.94
65376;BME280;51976;47.332;9.404;2022-07-03T11:39:08;93231.31;;;24.47;51.04
65376;BME280;51976;47.332;9.404;2022-07-03T11:41:43;93221.19;;;24.51;51.02
65376;BME280;51976;47.332;9.404;2022-07-03T11:44:09;93222.16;;;24.59;50.76
65376;BME280;51976;47.332;9.404;2022-07-03T11:46:39;93214.59;;;24.56;50.78
65376;BME280;51976;47.332;9.404;2022-07-03T11:49:11;93213.13;;;24.62;50.88
65376;BME280;51976;47.332;9.404;2022-07-03T11:51:40;93215.53;;;24.63;50.71
65376;BME280;51976;47.332;9.404;2022-07-03T11:54:06;93217.44;;;24.59;51.02
65376;BME280;51976;47.332;9.404;2022-07-03T11:56:32;93214.38;;;24.64;50.89
65376;BME280;51976;47.332;9.404;2022-07-03T11:59:00;93203.78;;;24.67;50.90
65376;BME280;51976;47.332;9.404;2022-07-03T12:01:30;93202.78;;;24.75;50.93
65376;BME280;51976;47.332;9.404;2022-07-03T12:04:20;93206.25;;;24.72;50.74
65376;BME280;51976;47.332;9.404;2022-07-03T12:06:53;93208.00;;;24.80;50.47
65376;BME280;51976;47.332;9.404;2022-07-03T12:09:28;93199.66;;;24.76;50.75
65376;BME280;51976;47.332;9.404;2022-07-03T12:12:03;93201.25;;;24.77;50.86
65376;BME280;51976;47.332;9.404;2022-07-03T12:14:50;93198.22;;;24.82;50.71
65376;BME280;51976;47.332;9.404;2022-07-03T12:17:21;93197.50;;;24.85;50.80
65376;BME280;51976;47.332;9.404;2022-07-03T12:19:48;93198.66;;;24.84;50.73
65376;BME280;51976;47.332;9.404;2022-07-03T12:22:28;93188.88;;;24.87;50.70
65376;BME280;51976;47.332;9.404;2022-07-03T12:25:10;93188.88;;;24.87;50.83
65376;BME280;51976;47.332;9.404;2022-07-03T12:27:43;93185.91;;;24.95;50.76
65376;BME280;51976;47.332;9.404;2022-07-03T12:30:12;93181.69;;;25.02;50.43
65376;BME280;51976;47.332;9.404;2022-07-03T12:32:40;93184.38;;;24.98;50.69
65376;BME280;51976;47.332;9.404;2022-07-03T12:35:07;93181.25;;;25.00;50.61
65376;BME280;51976;47.332;9.404;2022-07-03T12:37:37;93184.09;;;25.03;50.39
65376;BME280;51976;47.332;9.404;2022-07-03T12:40:06;93182.91;;;25.04;50.77
65376;BME280;51976;47.332;9.404;2022-07-03T12:42:42;93179.06;;;25.09;50.41
65376;BME280;51976;47.332;9.404;2022-07-03T12:45:12;93170.38;;;25.07;50.51
65376;BME280;51976;47.332;9.404;2022-07-03T12:47:38;93181.97;;;25.16;50.44
65376;BME280;51976;47.332;9.404;2022-07-03T12:50:06;93176.03;;;25.14;50.35
65376;BME280;51976;47.332;9.404;2022-07-03T12:52:34;93171.13;;;25.26;50.36
65376;BME280;51976;47.332;9.404;2022-07-03T12:55:25;93173.09;;;25.26;50.30
65376;BME280;51976;47.332;9.404;2022-07-03T12:58:12;93169.44;;;25.41;50.05
65376;BME280;51976;47.332;9.404;2022-07-03T13:00:58;93162.13;;;25.52;49.79
65376;BME280;51976;47.332;9.404;2022-07-03T13:03:31;93164.09;;;25.52;49.78
65376;BME280;51976;47.332;9.404;2022-07-03T13:05:59;93158.56;;;25.52;49.81
65376;BME280;51976;47.332;9.404;2022-07-03T13:08:24;93160.97;;;25.53;49.78
65376;BME280;51976;47.332;9.404;2022-07-03T13:10:57;93158.63;;;25.55;49.80
65376;BME280;51976;47.332;9.404;2022-07-03T13:13:22;93153.47;;;25.54;49.72
65376;BME280;51976;47.332;9.404;2022-07-03T13:15:48;93154.34;;;25.58;49.65
65376;BME280;51976;47.332;9.404;2022-07-03T13:18:13;93153.25;;;25.62;49.95
65376;BME280;51976;47.332;9.404;2022-07-03T13:20:39;93153.34;;;25.66;49.66